createdAt,value
2023-08-08T00:00:23.085Z,1.37
2023-08-08T00:03:28.582Z,1.20
2023-08-08T00:06:32.353Z,1.43
2023-08-08T00:09:36.314Z,1.33
2023-08-08T00:12:40.025Z,1.37
2023-08-08T00:15:44.353Z,1.47
2023-08-08T00:18:50.990Z,1.40
2023-08-08T00:21:54.729Z,2.13
2023-08-08T00:24:58.615Z,1.87
2023-08-08T00:28:02.320Z,1.43
2023-08-08T00:31:06.169Z,1.90
2023-08-08T00:34:11.135Z,2.20
2023-08-08T00:37:14.740Z,1.27
2023-08-08T00:40:18.649Z,2.03
2023-08-08T00:43:22.444Z,1.53
2023-08-08T00:46:26.417Z,1.37
2023-08-08T00:49:31.495Z,2.10
2023-08-08T00:52:36.440Z,1.93
2023-08-08T00:55:40.852Z,1.80
2023-08-08T00:58:46.731Z,1.80
2023-08-08T01:01:50.487Z,1.77
2023-08-08T01:04:55.943Z,1.60
2023-08-08T01:08:07.153Z,1.70
2023-08-08T01:11:12.284Z,1.50
2023-08-08T01:14:17.490Z,1.60
2023-08-08T01:17:23.592Z,1.60
2023-08-08T01:20:28.996Z,1.63
2023-08-08T01:23:45.936Z,1.90
2023-08-08T01:26:51.706Z,1.37
2023-08-08T01:29:55.973Z,1.40
2023-08-08T01:32:59.691Z,1.83
2023-08-08T01:36:14.843Z,1.67
2023-08-08T01:39:29.007Z,1.83
2023-08-08T01:42:35.608Z,1.60
2023-08-08T01:45:39.882Z,1.93
2023-08-08T01:48:48.509Z,2.03
2023-08-08T01:51:53.510Z,1.93
2023-08-08T01:54:58.141Z,1.80
2023-08-08T01:58:03.217Z,1.80
2023-08-08T02:01:06.903Z,1.80
2023-08-08T02:04:10.653Z,2.30
2023-08-08T02:07:14.365Z,1.77
2023-08-08T02:10:18.586Z,2.10
2023-08-08T02:13:23.769Z,2.10
2023-08-08T02:16:27.448Z,3.17
2023-08-08T02:19:31.580Z,2.33
2023-08-08T02:22:35.527Z,2.50
2023-08-08T02:25:39.133Z,2.30
2023-08-08T02:28:44.581Z,2.30
2023-08-08T02:31:48.220Z,2.23
2023-08-08T02:34:51.952Z,1.97
2023-08-08T02:37:55.669Z,2.10
2023-08-08T02:40:59.497Z,2.00
2023-08-08T02:44:04.654Z,2.43
2023-08-08T02:47:08.816Z,2.67
2023-08-08T02:50:12.775Z,3.10
2023-08-08T02:53:16.521Z,2.70
2023-08-08T02:56:20.110Z,2.90
2023-08-08T02:59:25.307Z,2.10
2023-08-08T03:02:29.063Z,2.57
2023-08-08T03:05:32.956Z,3.00
2023-08-08T03:08:36.524Z,2.50
2023-08-08T03:11:42.605Z,2.30
2023-08-08T03:14:49.031Z,2.50
2023-08-08T03:17:52.722Z,2.53
2023-08-08T03:20:56.385Z,2.80
2023-08-08T03:24:00.379Z,2.93
2023-08-08T03:27:03.964Z,2.23
2023-08-08T03:30:11.121Z,2.67
2023-08-08T03:33:14.845Z,2.87
2023-08-08T03:36:18.606Z,3.60
2023-08-08T03:39:22.453Z,3.40
2023-08-08T03:42:26.226Z,3.30
2023-08-08T03:45:31.571Z,3.10
2023-08-08T03:48:35.287Z,3.43
2023-08-08T03:51:38.901Z,3.10
2023-08-08T03:54:42.494Z,3.53
2023-08-08T03:57:46.472Z,3.03
2023-08-08T04:00:51.902Z,2.70
2023-08-08T04:03:55.551Z,3.10
2023-08-08T04:06:59.642Z,3.47
2023-08-08T04:10:03.633Z,3.67
2023-08-08T04:13:07.271Z,2.83
2023-08-08T04:16:12.333Z,3.00
2023-08-08T04:19:15.981Z,3.67
2023-08-08T04:22:19.862Z,3.03
2023-08-08T04:25:23.627Z,2.93
2023-08-08T04:28:27.241Z,2.83
2023-08-08T04:31:32.269Z,3.00
2023-08-08T04:34:36.091Z,3.00
2023-08-08T04:37:40.044Z,3.67
2023-08-08T04:40:43.693Z,3.73
2023-08-08T04:43:47.272Z,3.30
2023-08-08T04:46:52.326Z,4.20
2023-08-08T04:49:56.527Z,3.70
2023-08-08T04:53:00.226Z,3.20
2023-08-08T04:56:03.853Z,3.87
2023-08-08T04:59:07.409Z,3.33
2023-08-08T05:02:12.491Z,3.70
2023-08-08T05:05:16.086Z,3.07
2023-08-08T05:08:19.941Z,3.37
2023-08-08T05:11:23.557Z,3.77
2023-08-08T05:14:27.152Z,3.77
2023-08-08T05:17:33.470Z,2.83
2023-08-08T05:20:37.015Z,3.07
2023-08-08T05:23:40.556Z,2.50
2023-08-08T05:26:44.198Z,2.70
2023-08-08T05:29:52.073Z,2.40
2023-08-08T05:32:57.072Z,2.87
2023-08-08T05:36:00.692Z,2.90
2023-08-08T05:39:08.067Z,3.63
2023-08-08T05:42:11.817Z,2.77
2023-08-08T05:45:15.433Z,2.60
2023-08-08T05:48:20.472Z,2.70
2023-08-08T05:51:24.169Z,2.33
2023-08-08T05:54:33.811Z,2.67
2023-08-08T05:57:43.535Z,2.10
2023-08-08T06:00:47.188Z,2.33
2023-08-08T06:03:52.589Z,2.27
2023-08-08T06:06:56.512Z,2.10
2023-08-08T06:10:05.776Z,2.53
2023-08-08T06:13:13.854Z,2.27
2023-08-08T06:16:23.685Z,2.47
2023-08-08T06:19:32.501Z,2.00
2023-08-08T06:22:36.021Z,2.30
2023-08-08T06:25:41.350Z,2.57
2023-08-08T06:28:45.453Z,2.30
2023-08-08T06:31:51.969Z,2.00
2023-08-08T06:34:57.347Z,2.33
2023-08-08T06:38:01.066Z,1.67
2023-08-08T06:41:05.765Z,1.93
2023-08-08T06:44:10.778Z,2.10
2023-08-08T06:47:14.422Z,2.17
2023-08-08T06:50:20.864Z,1.60
2023-08-08T06:53:25.059Z,2.00
2023-08-08T06:56:28.729Z,1.40
2023-08-08T06:59:32.239Z,1.30
2023-08-08T07:02:36.153Z,1.63
2023-08-08T07:05:41.222Z,2.03
2023-08-08T07:08:44.863Z,1.33
2023-08-08T07:11:48.894Z,1.47
2023-08-08T07:14:52.691Z,1.27
2023-08-08T07:17:56.331Z,1.50
2023-08-08T07:21:01.692Z,1.20
2023-08-08T07:24:06.061Z,1.20
2023-08-08T07:27:09.664Z,1.33
2023-08-08T07:30:15.316Z,0.77
2023-08-08T07:33:18.918Z,0.90
2023-08-08T07:36:24.260Z,0.97
2023-08-08T07:39:28.230Z,0.67
2023-08-08T07:42:31.835Z,1.00
2023-08-08T07:45:35.520Z,1.07
2023-08-08T07:48:39.425Z,1.30
2023-08-08T07:51:44.568Z,0.87
2023-08-08T07:54:48.490Z,1.40
2023-08-08T07:57:52.159Z,1.00
2023-08-08T08:00:56.132Z,0.93
2023-08-08T08:03:59.779Z,0.67
2023-08-08T08:07:05.029Z,1.40
2023-08-08T08:10:14.446Z,0.83
2023-08-08T08:13:18.208Z,1.23
2023-08-08T08:16:21.960Z,1.27
2023-08-08T08:19:26.256Z,0.80
2023-08-08T08:22:31.193Z,1.20
2023-08-08T08:25:34.707Z,1.40
2023-08-08T08:28:38.306Z,0.90
2023-08-08T08:31:41.889Z,1.57
2023-08-08T08:34:45.975Z,1.20
2023-08-08T08:37:51.673Z,1.43
2023-08-08T08:40:59.004Z,1.17
2023-08-08T08:44:03.502Z,1.30
2023-08-08T08:47:14.217Z,0.97
2023-08-08T08:50:20.805Z,1.17
2023-08-08T08:53:26.016Z,0.77
2023-08-08T08:56:30.488Z,1.30
2023-08-08T08:59:34.293Z,0.70
2023-08-08T09:02:38.943Z,0.50
2023-08-08T09:05:46.149Z,1.33
2023-08-08T09:08:53.489Z,0.67
2023-08-08T09:11:59.602Z,0.70
2023-08-08T09:15:06.654Z,0.67
2023-08-08T09:18:10.861Z,0.60
2023-08-08T09:21:16.859Z,0.70
2023-08-08T09:24:22.502Z,0.50
2023-08-08T09:27:26.319Z,1.03
2023-08-08T09:30:31.591Z,0.87
2023-08-08T09:33:37.463Z,0.70
2023-08-08T09:36:42.379Z,0.50
2023-08-08T09:39:47.592Z,0.40
2023-08-08T09:42:54.958Z,0.60
2023-08-08T09:45:58.769Z,0.50
2023-08-08T09:49:04.757Z,0.60
2023-08-08T09:52:09.789Z,0.37
2023-08-08T09:55:15.997Z,0.60
2023-08-08T09:58:20.028Z,0.77
2023-08-08T10:01:24.679Z,0.73
2023-08-08T10:04:29.300Z,0.77
2023-08-08T10:07:33.145Z,0.53
2023-08-08T10:10:40.043Z,0.30
2023-08-08T10:13:51.993Z,0.57
2023-08-08T10:16:56.415Z,0.73
2023-08-08T10:20:05.281Z,0.60
2023-08-08T10:23:09.645Z,0.67
2023-08-08T10:26:22.089Z,0.50
2023-08-08T10:29:28.738Z,0.70
2023-08-08T10:32:41.830Z,0.77
2023-08-08T10:35:59.021Z,0.67
2023-08-08T10:39:04.168Z,0.77
2023-08-08T10:42:09.863Z,1.27
2023-08-08T10:45:18.277Z,0.47
2023-08-08T10:48:22.034Z,0.70
2023-08-08T10:51:34.196Z,0.80
2023-08-08T10:54:39.547Z,0.50
2023-08-08T10:57:44.781Z,0.50
2023-08-08T11:00:49.287Z,0.70
2023-08-08T11:03:53.169Z,0.57
2023-08-08T11:06:57.534Z,1.33
2023-08-08T11:10:03.045Z,0.40
2023-08-08T11:13:10.561Z,0.40
2023-08-08T11:16:14.290Z,0.40
2023-08-08T11:19:20.475Z,0.60
2023-08-08T11:22:24.780Z,0.40
2023-08-08T11:25:31.517Z,0.40
2023-08-08T11:28:36.470Z,0.70
2023-08-08T11:31:41.138Z,0.43
2023-08-08T11:34:44.935Z,0.77
2023-08-08T11:37:48.861Z,0.57
2023-08-08T11:40:53.607Z,0.63
2023-08-08T11:43:59.154Z,1.47
2023-08-08T11:47:05.230Z,0.43
2023-08-08T11:50:13.306Z,0.30
2023-08-08T11:53:17.500Z,0.30
2023-08-08T11:56:22.799Z,0.60
2023-08-08T11:59:28.049Z,0.50
2023-08-08T12:02:39.972Z,1.07
2023-08-08T12:05:43.748Z,0.50
2023-08-08T12:08:49.858Z,0.60
2023-08-08T12:11:53.601Z,0.93
2023-08-08T12:18:06.733Z,0.73
2023-08-08T12:21:11.472Z,0.60
2023-08-08T12:24:15.084Z,0.97
2023-08-08T12:27:18.991Z,0.80
2023-08-08T12:30:24.117Z,0.77
2023-08-08T12:33:28.083Z,0.60
2023-08-08T12:36:31.751Z,0.63
2023-08-08T12:39:35.919Z,1.00
2023-08-08T12:42:39.520Z,0.60
2023-08-08T12:45:44.499Z,0.60
2023-08-08T12:48:48.332Z,0.60
2023-08-08T12:51:53.459Z,0.77
2023-08-08T12:54:57.096Z,0.90
2023-08-08T12:58:00.796Z,1.00
2023-08-08T13:01:05.785Z,0.80
2023-08-08T13:04:19.718Z,1.07
2023-08-08T13:07:24.038Z,1.03
2023-08-08T13:10:27.719Z,1.17
2023-08-08T13:13:31.540Z,0.70
2023-08-08T13:16:37.120Z,1.10
2023-08-08T13:19:40.665Z,0.50
2023-08-08T13:22:44.742Z,0.60
2023-08-08T13:25:50.269Z,0.60
2023-08-08T13:28:54.007Z,1.27
2023-08-08T13:31:59.430Z,0.80
2023-08-08T13:35:03.351Z,0.70
2023-08-08T13:38:08.174Z,0.60
2023-08-08T13:41:11.854Z,0.70
2023-08-08T13:44:15.359Z,0.60
2023-08-08T13:47:20.431Z,0.80
2023-08-08T13:50:26.955Z,0.93
2023-08-08T13:53:30.920Z,0.97
2023-08-08T13:56:34.559Z,0.70
2023-08-08T13:59:38.599Z,0.30
2023-08-08T14:02:43.712Z,0.57
2023-08-08T14:05:48.149Z,0.40
2023-08-08T14:08:53.402Z,0.60
2023-08-08T14:11:57.026Z,0.57
2023-08-08T14:15:00.628Z,0.60
2023-08-08T14:18:06.406Z,0.77
2023-08-08T14:21:10.149Z,0.40
2023-08-08T14:24:13.788Z,0.57
2023-08-08T14:27:17.430Z,0.50
2023-08-08T14:30:22.175Z,0.90
2023-08-08T14:33:27.287Z,0.40
2023-08-08T14:36:31.133Z,0.57
2023-08-08T14:39:34.820Z,0.60
2023-08-08T14:42:38.587Z,0.70
2023-08-08T14:45:42.292Z,0.43
2023-08-08T14:48:47.710Z,0.90
2023-08-08T14:51:51.296Z,0.80
2023-08-08T14:54:55.964Z,0.60
2023-08-08T14:57:59.630Z,0.53
2023-08-08T15:01:03.893Z,0.70
2023-08-08T15:04:09.116Z,0.50
2023-08-08T15:07:12.806Z,0.70
2023-08-08T15:10:16.368Z,0.47
2023-08-08T15:13:20.073Z,0.50
2023-08-08T15:16:23.658Z,0.57
2023-08-08T15:19:28.718Z,1.13
2023-08-08T15:22:32.221Z,0.60
2023-08-08T15:25:35.830Z,0.77
2023-08-08T15:28:41.758Z,0.47
2023-08-08T15:31:46.377Z,0.70
2023-08-08T15:34:51.544Z,0.50
2023-08-08T15:37:55.201Z,0.60
2023-08-08T15:40:59.140Z,1.37
2023-08-08T15:44:02.906Z,0.57
2023-08-08T15:47:07.300Z,0.67
2023-08-08T15:50:12.900Z,0.60
2023-08-08T15:53:16.442Z,0.63
2023-08-08T15:56:20.170Z,1.33
2023-08-08T15:59:23.793Z,0.90
2023-08-08T16:02:27.456Z,0.70
2023-08-08T16:05:32.404Z,0.73
2023-08-08T16:08:36.180Z,0.50
2023-08-08T16:11:39.749Z,0.83
2023-08-08T16:14:43.654Z,0.50
2023-08-08T16:17:47.922Z,1.03
2023-08-08T16:20:52.924Z,0.50
2023-08-08T16:23:56.594Z,0.50
2023-08-08T16:27:00.416Z,0.50
2023-08-08T16:30:05.067Z,0.70
2023-08-08T16:33:09.107Z,0.53
2023-08-08T16:36:15.916Z,0.60
2023-08-08T16:39:19.792Z,0.60
2023-08-08T16:42:23.582Z,0.43
2023-08-08T16:45:28.920Z,0.63
2023-08-08T16:48:32.857Z,0.67
2023-08-08T16:51:38.050Z,0.40
2023-08-08T16:54:42.467Z,0.83
2023-08-08T16:57:46.630Z,0.60
2023-08-08T17:00:54.712Z,0.70
2023-08-08T17:03:58.650Z,0.60
2023-08-08T17:07:03.865Z,0.40
2023-08-08T17:10:11.702Z,0.80
2023-08-08T17:13:15.400Z,0.40
2023-08-08T17:16:19.743Z,0.70
2023-08-08T17:19:23.909Z,0.47
2023-08-08T17:22:29.333Z,0.30
2023-08-08T17:25:36.739Z,0.30
2023-08-08T17:28:43.402Z,0.80
2023-08-08T17:31:47.272Z,0.83
2023-08-08T17:34:51.342Z,0.70
2023-08-08T17:37:56.823Z,0.50
2023-08-08T17:41:01.066Z,0.70
2023-08-08T17:44:06.164Z,0.40
2023-08-08T17:47:11.590Z,0.53
2023-08-08T17:50:15.222Z,0.50
2023-08-08T17:53:20.457Z,0.70
2023-08-08T17:56:24.156Z,0.80
2023-08-08T17:59:30.675Z,0.67
2023-08-08T18:02:34.913Z,0.50
2023-08-08T18:05:38.642Z,0.67
2023-08-08T18:08:43.844Z,0.57
2023-08-08T18:11:47.439Z,0.63
2023-08-08T18:14:54.090Z,0.87
2023-08-08T18:17:58.080Z,0.70
2023-08-08T18:21:01.725Z,0.67
2023-08-08T18:24:08.721Z,0.90
2023-08-08T18:27:12.587Z,0.65
2023-08-08T18:30:17.445Z,0.87
2023-08-08T18:33:21.002Z,0.70
2023-08-08T18:36:24.865Z,1.00
2023-08-08T18:39:29.960Z,0.93
2023-08-08T18:42:33.877Z,0.83
2023-08-08T18:45:37.588Z,0.50
2023-08-08T18:48:41.490Z,0.90
2023-08-08T18:51:45.063Z,1.17
2023-08-08T18:54:50.388Z,0.70
2023-08-08T18:57:53.956Z,0.90
2023-08-08T19:00:57.884Z,1.00
2023-08-08T19:04:02.431Z,0.87
2023-08-08T19:07:06.167Z,1.30
2023-08-08T19:10:12.208Z,0.90
2023-08-08T19:13:17.248Z,1.00
2023-08-08T19:16:21.126Z,0.80
2023-08-08T19:19:24.837Z,0.60
2023-08-08T19:22:28.864Z,0.77
2023-08-08T19:25:34.048Z,0.73
2023-08-08T19:28:40.835Z,0.83
2023-08-08T19:31:46.416Z,0.67
2023-08-08T19:34:53.636Z,0.90
2023-08-08T19:37:57.497Z,1.20
2023-08-08T19:41:02.614Z,1.43
2023-08-08T19:44:06.679Z,1.00
2023-08-08T19:47:10.263Z,1.40
2023-08-08T19:50:13.952Z,1.27
2023-08-08T19:53:18.289Z,1.23
2023-08-08T19:56:23.521Z,1.07
2023-08-08T19:59:27.156Z,1.10
2023-08-08T20:02:33.697Z,1.30
2023-08-08T20:05:37.440Z,0.97
2023-08-08T20:08:41.580Z,1.20
2023-08-08T20:11:46.703Z,1.70
2023-08-08T20:14:50.629Z,1.03
2023-08-08T20:17:54.412Z,0.83
2023-08-08T20:20:58.179Z,1.20
2023-08-08T20:24:01.875Z,1.10
2023-08-08T20:27:07.744Z,0.37
2023-08-08T20:30:13.388Z,0.60
2023-08-08T20:33:17.054Z,1.10
2023-08-08T20:36:20.859Z,1.10
2023-08-08T20:39:25.234Z,0.90
2023-08-08T20:42:30.626Z,0.80
2023-08-08T20:45:34.425Z,0.70
2023-08-08T20:48:38.094Z,0.73
2023-08-08T20:51:42.016Z,0.60
2023-08-08T20:54:45.586Z,0.83
2023-08-08T20:57:50.801Z,0.77
2023-08-08T21:00:54.544Z,0.60
2023-08-08T21:03:58.511Z,0.80
2023-08-08T21:07:02.501Z,0.57
2023-08-08T21:10:07.784Z,0.50
2023-08-08T21:13:12.851Z,0.67
2023-08-08T21:16:16.949Z,0.87
2023-08-08T21:19:20.594Z,0.80
2023-08-08T21:22:24.549Z,0.50
2023-08-08T21:25:28.486Z,1.10
2023-08-08T21:28:34.659Z,0.40
2023-08-08T21:31:38.304Z,0.50
2023-08-08T21:34:41.892Z,0.80
2023-08-08T21:37:45.613Z,0.80
2023-08-08T21:40:49.231Z,0.70
2023-08-08T21:43:54.269Z,0.70
2023-08-08T21:46:57.799Z,0.80
2023-08-08T21:50:01.416Z,0.80
2023-08-08T21:53:05.620Z,0.67
2023-08-08T21:56:09.164Z,0.90
2023-08-08T21:59:14.374Z,0.50
2023-08-08T22:02:18.081Z,0.77
2023-08-08T22:05:21.839Z,0.60
2023-08-08T22:08:25.439Z,0.70
2023-08-08T22:11:29.140Z,0.63
2023-08-08T22:14:34.570Z,0.50
2023-08-08T22:17:38.258Z,0.70
2023-08-08T22:20:42.542Z,0.57
2023-08-08T22:23:46.097Z,0.90
2023-08-08T22:26:49.799Z,0.90
2023-08-08T22:29:56.350Z,0.40
2023-08-08T22:33:00.314Z,0.60
2023-08-08T22:36:03.993Z,0.60
2023-08-08T22:39:07.529Z,0.67
2023-08-08T22:42:11.719Z,0.83
2023-08-08T22:45:36.712Z,0.60
2023-08-08T22:48:40.365Z,0.80
2023-08-08T22:51:43.939Z,0.97
2023-08-08T22:54:47.631Z,0.77
2023-08-08T22:57:51.302Z,0.87
2023-08-08T23:00:56.388Z,0.63
2023-08-08T23:03:59.950Z,0.50
2023-08-08T23:07:04.083Z,0.60
2023-08-08T23:10:09.265Z,0.70
2023-08-08T23:13:12.935Z,0.67
2023-08-08T23:16:18.087Z,1.13
2023-08-08T23:19:21.759Z,1.27
2023-08-08T23:22:25.406Z,1.40
2023-08-08T23:25:29.982Z,1.77
2023-08-08T23:28:33.800Z,1.60
2023-08-08T23:31:39.091Z,1.70
2023-08-08T23:34:42.717Z,1.83
2023-08-08T23:37:46.644Z,1.50
2023-08-08T23:40:50.235Z,1.27
2023-08-08T23:43:53.920Z,1.37
2023-08-08T23:46:59.148Z,1.47
2023-08-08T23:50:04.935Z,1.40
2023-08-08T23:53:08.893Z,1.20
2023-08-08T23:56:12.710Z,1.10
2023-08-08T23:59:16.402Z,1.00
